• Join FlightAware (Why Join?)
  • Login
  • US Flag 
05:02AM EDT


 

Airport Tracker/Info


-or-


 

Live Flight TrackerFlight Track Log ✈ N566UA ✈ 05-Apr-2013 ✈ KLAX - KIAH

Flight Track Log - Related Links

Times and Time Zones

All times are in EDT time to prevent confusion due to time zone crossing. See the N566UA flight status page for this flight to view local times or setup timezone preferences in your user account.

Time Position Orientation Groundspeed Altitude Reporting Facility
EDT Latitude Longitude Course Direction KTS MPH feet Rate Location/Type
10:36AM 33.9000 -118.4833 90° East 233 268 3,000  Level Southern California TRACON
10:37AM 33.8514 -118.4883 185° South 253 291 5,300 2,700 Climbing Los Angeles Center
10:38AM 33.7721 -118.6295 132° Southeast  Level FlightAware Approximate
10:38AM 33.7878 -118.5019 190° South 270 311 7,900  Level Los Angeles Center
10:39AM 33.6888 -118.5235 134° Southeast  Level FlightAware Approximate
10:39AM 33.6931 -118.5011 180° South 311 358 10,900  Level Los Angeles Center
10:40AM 33.6543 -118.3858 116° Southeast  Level FlightAware Approximate
10:40AM 33.6583 -118.3978 112° Southeast 346 398 13,500  Level Los Angeles Center
10:41AM 33.6333 -118.2458 90° East  Level FlightAware Approximate
10:41AM 33.6447 -118.2775 98° East 371 427 15,600  Level Los Angeles Center
10:42AM 33.6433 -118.1492 91° East 391 450 17,900 1,980 Climbing Los Angeles Center
10:43AM 33.6436 -117.9872 90° East 409 471 19,700 1,620 Climbing Los Angeles Center
10:44AM 33.6431 -117.8381 90° East 447 514 21,300 1,500 Climbing Los Angeles Center
10:45AM 33.6428 -117.7139 90° East 463 533 22,800 1,680 Climbing Los Angeles Center
10:46AM 33.6408 -117.5239 91° East 477 549 24,800 1,800 Climbing Los Angeles Center
10:47AM 33.6244 -117.3600 97° East 498 573 26,600 1,560 Climbing Los Angeles Center
10:48AM 33.6047 -117.1975 98° East 496 571 28,100 1,440 Climbing Los Angeles Center
10:49AM 33.5828 -117.0142 98° East 507 583 29,600 1,500 Climbing Los Angeles Center
10:50AM 33.5617 -116.8464 99° East 509 586 31,200 1,500 Climbing Los Angeles Center
10:51AM 33.5422 -116.6781 98° East 508 585 32,700 1,200 Climbing Los Angeles Center
10:52AM 33.5203 -116.5108 99° East 508 585 33,800 1,080 Climbing Los Angeles Center
10:53AM 33.5000 -116.3428 98° East 508 585 35,000 540 Climbing Los Angeles Center
10:54AM 33.4786 -116.1742 99° East 508 585 35,000  Level Los Angeles Center
10:55AM 33.4533 -115.9744 99° East 504 580 35,000  Level Los Angeles Center
10:56AM 33.4317 -115.8108 99° East 499 574 35,000  Level Los Angeles Center
10:57AM 33.4106 -115.6456 99° East 499 574 35,000  Level Los Angeles Center
10:58AM 33.3892 -115.4828 99° East 496 571 35,000  Level Los Angeles Center
11:00AM 33.3683 -115.3189 99° East 498 573 35,000 -60 Level Los Angeles Center
11:01AM 33.3456 -115.1544 99° East 499 574 34,900 -60 Descending Los Angeles Center
11:02AM 33.3233 -114.9894 99° East 503 579 34,900  Level Los Angeles Center
11:03AM 33.2958 -114.7917 99° East 503 579 34,900  Level Los Angeles Center
11:04AM 33.2769 -114.6244 98° East 505 581 35,000  Climbing Albuquerque Center
11:05AM 33.2517 -114.4581 100° East 508 585 35,000  Level Albuquerque Center
11:06AM 33.2278 -114.2911 100° East 511 588 35,000  Level Albuquerque Center
11:07AM 33.2050 -114.1233 99° East 512 589 35,000  Level Albuquerque Center
11:08AM 33.1803 -113.9553 100° East 513 590 35,000  Level Albuquerque Center
11:09AM 33.1569 -113.7892 99° East 510 587 35,000 -660 Level Albuquerque Center
11:11AM 33.1022 -113.4297 100° East 499 574 33,000 -660 Descending Albuquerque Center
11:12AM 33.0786 -113.2650 100° East 502 578 33,000  Level Albuquerque Center
11:13AM 33.0533 -113.1036 101° East 497 572 33,000 -60 Level Albuquerque Center
11:14AM 33.0286 -112.9414 100° East 495 570 32,900  Descending Albuquerque Center
11:15AM 33.0033 -112.7789 100° East 495 570 33,000  Climbing Albuquerque Center
11:16AM 32.9775 -112.6153 101° East 498 573 33,000  Level Albuquerque Center
11:17AM 32.9519 -112.4525 101° East 498 573 33,000  Level Albuquerque Center
11:18AM 32.9211 -112.2569 101° East 499 574 33,000  Level Albuquerque Center
11:19AM 32.8961 -112.0914 100° East 500 575 33,000  Level Albuquerque Center
11:20AM 32.8694 -111.9314 101° East 498 573 33,000  Level Albuquerque Center
11:21AM 32.8436 -111.7694 101° East 500 575 33,000  Level Albuquerque Center
11:22AM 32.8181 -111.6069 101° East 502 578 33,000  Level Albuquerque Center
11:23AM 32.7911 -111.4467 101° East 500 575 33,000  Level Albuquerque Center
11:24AM 32.7583 -111.2536 101° East 500 575 33,000  Level Albuquerque Center
11:25AM 32.7303 -111.0908 102° East 504 580 33,000  Level Albuquerque Center
11:26AM 32.7042 -110.9289 101° East 503 579 33,000  Level Albuquerque Center
11:27AM 32.6753 -110.7678 102° East 502 578 33,000  Level Albuquerque Center
11:28AM 32.6486 -110.6053 101° East 503 579 33,000  Level Albuquerque Center
11:29AM 32.6133 -110.4125 102° East 501 577 33,000  Level Albuquerque Center
11:31AM 32.5869 -110.2608 102° East 501 577 33,000  Level Albuquerque Center
11:32AM 32.5583 -110.1011 102° East 501 577 33,000  Level Albuquerque Center
11:33AM 32.5300 -109.9422 102° East 499 574 33,000  Level Albuquerque Center
11:34AM 32.4953 -109.7547 102° East 494 568 33,000  Level Albuquerque Center
11:35AM 32.4656 -109.5953 102° East 501 577 33,000  Level Albuquerque Center
11:36AM 32.4372 -109.4386 102° East 497 572 33,000  Level Albuquerque Center
11:37AM 32.4089 -109.2817 102° East 496 571 33,000  Level Albuquerque Center
11:38AM 32.3733 -109.0942 103° East 496 571 33,000  Level Albuquerque Center
11:39AM 32.3444 -108.9356 102° East 497 572 33,000  Level Albuquerque Center
11:40AM 32.3142 -108.7761 103° East 502 578 33,000  Level Albuquerque Center
11:41AM 32.2836 -108.6169 103° East 503 579 33,000  Level Albuquerque Center
11:42AM 32.2469 -108.4258 103° East 503 579 33,000  Level Albuquerque Center
11:43AM 32.2219 -108.2894 102° East 502 578 33,000  Level Albuquerque Center
11:44AM 32.1839 -108.0969 103° East 504 580 33,000  Level Albuquerque Center
11:45AM 32.1533 -107.9358 103° East 505 581 33,000  Level Albuquerque Center
11:46AM 32.1217 -107.7761 103° East 504 580 33,000  Level Albuquerque Center
11:47AM 32.0894 -107.6153 103° East 506 582 33,000  Level Albuquerque Center
11:48AM 32.0592 -107.4558 103° East 504 580 33,000  Level Albuquerque Center
11:49AM 32.0206 -107.2658 103° East 504 580 33,000  Level Albuquerque Center
11:50AM 31.9886 -107.1075 103° East 502 578 33,000 420 Level Albuquerque Center
11:51AM 31.9567 -106.9486 103° East 503 579 33,900 960 Climbing Albuquerque Center
11:52AM 31.9233 -106.7914 104° East 500 575 35,000 1,020 Climbing Albuquerque Center
11:53AM 31.8836 -106.6008 104° East 503 579 36,100 960 Climbing Albuquerque Center
11:54AM 31.8539 -106.4550 103° East 504 580 37,000 420 Climbing Albuquerque Center
11:55AM 31.8211 -106.2956 104° East 503 579 37,000  Level Albuquerque Center
11:56AM 31.7983 -106.1319 99° East 507 583 37,000 -60 Level Albuquerque Center
11:57AM 31.7733 -105.9344 98° East 509 586 36,900 -60 Descending Albuquerque Center
11:58AM 31.7533 -105.7689 98° East 512 589 36,900  Level Albuquerque Center
11:59AM 31.7336 -105.6039 98° East 510 587 37,000  Climbing Albuquerque Center
12:01PM 31.7133 -105.4397 98° East 509 586 37,000  Level Albuquerque Center
12:02PM 31.6939 -105.2747 98° East 508 585 37,000  Level Albuquerque Center
12:03PM 31.6731 -105.1081 98° East 510 587 37,000  Level Albuquerque Center
12:04PM 31.6522 -104.9425 98° East 511 588 37,000 -60 Level Albuquerque Center
12:05PM 31.6269 -104.7444 98° East 511 588 36,900 -60 Descending Albuquerque Center
12:06PM 31.6058 -104.5803 99° East 510 587 36,900  Level Albuquerque Center
12:07PM 31.5853 -104.4183 98° East 505 581 37,000  Climbing Albuquerque Center
12:08PM 31.5650 -104.2558 98° East 503 579 37,000  Level Albuquerque Center
12:09PM 31.5425 -104.0928 99° East 506 582 37,000  Level Albuquerque Center
12:10PM 31.5200 -103.9294 99° East 506 582 37,000  Level Albuquerque Center
12:11PM 31.4922 -103.7389 100° East 506 582 37,000  Level Albuquerque Center
12:12PM 31.4703 -103.5775 99° East 504 580 37,000  Level Albuquerque Center
12:13PM 31.4483 -103.4139 99° East 506 582 37,000  Level Albuquerque Center
12:14PM 31.4297 -103.2508 98° East 507 583 37,000  Level Albuquerque Center
12:15PM 31.4094 -103.0883 98° East 506 582 37,000  Level Albuquerque Center
12:16PM 31.3833 -102.8925 99° East 507 583 37,000  Level Albuquerque Center
12:17PM 31.3633 -102.7311 98° East 505 581 37,000  Level Albuquerque Center
12:18PM 31.3425 -102.5692 99° East 504 580 37,000  Level Albuquerque Center
12:19PM 31.3186 -102.3881 99° East 514 592 37,000  Level Albuquerque Center
12:20PM 31.2972 -102.2267 99° East 508 585 37,000  Level Albuquerque Center
12:21PM 31.2758 -102.0664 99° East 504 580 37,000 -120 Level Albuquerque Center
12:22PM 31.2556 -101.9014 98° East 505 581 36,800 -720 Descending Albuquerque Center
12:23PM 31.2328 -101.7392 99° East 507 583 35,500 -1,080 Descending Albuquerque Center
12:24PM 31.2139 -101.6081 100° East 507 583 34,900 -300 Descending Houston Center
12:25PM 31.1922 -101.4478 99° East 506 582 35,000  Climbing Houston Center
12:26PM 31.1703 -101.2881 99° East 502 578 35,000  Level Houston Center
12:27PM 31.1492 -101.1272 99° East 501 577 35,000 -60 Level Houston Center
12:28PM 31.1225 -100.9356 99° East 498 573 34,900  Descending Houston Center
12:29PM 31.0992 -100.7756 100° East 499 574 35,000  Climbing Houston Center
12:30PM 31.0761 -100.6175 100° East 494 568 35,000  Level Houston Center
12:31PM 31.0519 -100.4575 100° East 500 575 35,000 -60 Level Houston Center
12:32PM 31.0294 -100.2978 99° East 498 573 34,900  Descending Houston Center
12:33PM 31.0042 -100.1392 100° East 497 572 35,000  Climbing Houston Center
12:34PM 30.9769 -99.9475 99° East 497 572 35,000  Level Houston Center
12:35PM 30.9533 -99.7875 100° East 498 573 35,000  Level Houston Center
12:36PM 30.9292 -99.6283 100° East 499 574 35,000 -60 Level Houston Center
12:37PM 30.9050 -99.4667 100° East 505 581 34,900  Descending Houston Center
12:39PM 30.8794 -99.3050 100° East 507 583 35,000  Climbing Houston Center
12:40PM 30.8500 -99.1200 100° East 508 585 35,000  Level Houston Center
12:41PM 30.8242 -98.9575 100° East 508 585 35,000 -540 Level Houston Center
12:42PM 30.7992 -98.7939 100° East 510 587 33,900 -960 Descending Houston Center
12:43PM 30.7972 -98.6303 91° East 506 582 33,100 -840 Descending Houston Center
12:44PM 30.8033 -98.4669 87° East 502 578 32,200 -1,020 Descending Houston Center
12:45PM 30.8067 -98.3042 89° East 500 575 31,100 -1,320 Descending Houston Center
12:46PM 30.8089 -98.1142 89° East 499 574 29,500 -1,020 Descending Houston Center
12:47PM 30.8108 -97.9497 89° East 504 580 29,000 -300 Descending Houston Center
12:48PM 30.8128 -97.7839 89° East 508 585 29,000  Level Houston Center
12:49PM 30.8133 -97.6211 90° East 504 580 29,000  Level Houston Center
12:50PM 30.8153 -97.4575 89° East 504 580 29,000  Level Houston Center
12:51PM 30.8164 -97.2692 90° East 505 581 29,000  Level Houston Center
12:52PM 30.8197 -97.1108 89° East 498 573 29,000 -120 Level Houston Center
12:53PM 30.8214 -96.9611 89° East 464 534 28,800 -1,080 Descending Houston Center
12:54PM 30.8236 -96.8125 89° East 458 527 26,800 -2,220 Descending Houston Center
12:55PM 30.7989 -96.6686 101° East 450 518 24,300 -2,640 Descending Houston Center
12:56PM 30.7450 -96.5389 116° Southeast 442 509 21,400 -3,120 Descending Houston Center
12:57PM 30.6842 -96.3975 117° Southeast 416 479 17,900 -2,820 Descending Houston Center
12:58PM 30.6369 -96.2803 115° Southeast 399 459 15,600 -2,400 Descending Houston Center
12:59PM 30.6022 -96.2047 118° Southeast 382 440 13,800 -2,460 Descending Houston Center
12:59PM 30.5883 -96.1711 116° Southeast 382 440 13,100 -2,220 Descending Houston Center
01:00PM 30.5681 -96.1261 118° Southeast 372 428 12,200 -2,040 Descending Houston Center
01:00PM 30.5431 -96.0658 116° Southeast 365 420 11,000 -2,100 Descending Houston Center
01:01PM 30.5214 -96.0200 119° Southeast 347 399 10,100 -960 Descending Houston Center
01:01PM 30.4986 -95.9694 118° Southeast 338 389 10,000 -120 Descending Houston Center
01:02PM 30.4822 -95.9300 116° Southeast 297 342 10,000  Level Houston Center
01:02PM 30.4625 -95.8847 117° Southeast 299 344 10,000 -240 Level Houston Center
01:03PM 30.4333 -95.8508 135° Southeast 299 344 9,800 -900 Descending Houston Center
01:03PM 30.3928 -95.8458 174° South 300 345 9,100 -1,260 Descending Houston Center
01:04PM 30.3422 -95.8419 176° South 299 344 8,400 -1,080 Descending Houston Center
01:04PM 30.2942 -95.8267 165° South 303 349 8,000 -420 Descending Houston Center
01:05PM 30.2597 -95.8106 158° South 292 336 8,000  Level Houston Center
01:05PM 30.2194 -95.7900 156° South 294 338 8,000 -420 Level Houston Center
01:06PM 30.1831 -95.7736 159° South 291 335 7,600 -1,080 Descending Houston Center
01:06PM 30.1447 -95.7550 157° South 291 335 6,900 -1,200 Descending Houston Center
01:07PM 30.1106 -95.7386 157° South 286 329 6,400 -1,020 Descending Houston Center
01:07PM 30.0736 -95.7167 153° Southeast 284 327 5,900 -1,080 Descending Houston Center
01:08PM 30.0414 -95.6911 146° Southeast 267 307 5,300 -780 Descending Houston Center
01:09PM 30.0150 -95.6664 141° Southeast 268 308 5,100 -600 Descending Houston Center
01:09PM 29.9961 -95.6314 122° Southeast 233 268 4,700 -720 Descending Houston Center
01:10PM 29.9908 -95.5994 101° East 235 270 4,400 -840 Descending Houston Center
01:10PM 29.9917 -95.5594 89° East 219 252 3,900 -1,440 Descending Houston Center